createdAt,value
2018-12-03T00:01:53.952Z,0.70
2018-12-03T00:04:23.266Z,0.60
2018-12-03T00:06:51.849Z,0.60
2018-12-03T00:09:20.247Z,0.50
2018-12-03T00:11:49.316Z,0.50
2018-12-03T00:14:17.516Z,0.50
2018-12-03T00:16:45.881Z,0.50
2018-12-03T00:19:14.030Z,0.63
2018-12-03T00:21:42.322Z,0.60
2018-12-03T00:24:10.536Z,0.50
2018-12-03T00:26:38.657Z,0.50
2018-12-03T00:29:06.945Z,0.50
2018-12-03T00:31:35.210Z,0.60
2018-12-03T00:34:03.498Z,0.50
2018-12-03T00:36:31.694Z,0.50
2018-12-03T00:39:00.365Z,0.50
2018-12-03T00:41:28.495Z,0.60
2018-12-03T00:43:56.869Z,0.60
2018-12-03T00:46:25.117Z,0.60
2018-12-03T00:48:53.654Z,0.50
2018-12-03T00:51:21.812Z,0.50
2018-12-03T00:53:50.928Z,0.60
2018-12-03T00:56:19.265Z,0.50
2018-12-03T00:58:47.396Z,0.50
2018-12-03T01:01:15.673Z,0.50
2018-12-03T01:03:43.900Z,0.50
2018-12-03T01:06:12.065Z,0.50
2018-12-03T01:08:40.257Z,0.50
2018-12-03T01:11:08.577Z,0.50
2018-12-03T01:13:36.960Z,0.60
2018-12-03T01:16:05.476Z,0.60
2018-12-03T01:18:33.613Z,0.60
2018-12-03T01:21:02.027Z,0.50
2018-12-03T01:23:30.206Z,0.70
2018-12-03T01:25:58.391Z,0.50
2018-12-03T01:28:26.533Z,0.50
2018-12-03T01:30:54.808Z,0.50
2018-12-03T01:33:23.018Z,0.50
2018-12-03T01:35:51.169Z,0.50
2018-12-03T01:38:19.455Z,0.50
2018-12-03T01:40:47.681Z,0.50
2018-12-03T01:43:15.849Z,0.60
2018-12-03T01:45:44.000Z,0.50
2018-12-03T01:48:12.489Z,0.45
2018-12-03T01:50:40.658Z,0.50
2018-12-03T01:53:08.926Z,0.70
2018-12-03T01:55:37.112Z,0.50
2018-12-03T01:58:05.510Z,0.50
2018-12-03T02:00:33.789Z,0.60
2018-12-03T02:03:02.215Z,0.40
2018-12-03T02:05:30.623Z,0.50
2018-12-03T02:07:58.865Z,0.53
2018-12-03T02:10:27.042Z,0.60
2018-12-03T02:12:55.252Z,0.50
2018-12-03T02:15:24.492Z,0.50
2018-12-03T02:17:52.610Z,0.50
2018-12-03T02:20:21.358Z,0.70
2018-12-03T02:22:49.499Z,0.60
2018-12-03T02:25:17.669Z,0.50
2018-12-03T02:27:45.926Z,0.50
2018-12-03T02:30:16.472Z,0.50
2018-12-03T02:32:44.778Z,0.50
2018-12-03T02:35:13.905Z,0.50
2018-12-03T02:37:42.062Z,0.60
2018-12-03T02:40:12.489Z,0.50
2018-12-03T02:42:40.722Z,0.50
2018-12-03T02:45:10.762Z,0.50
2018-12-03T02:47:38.970Z,0.50
2018-12-03T02:50:10.267Z,0.60
2018-12-03T02:52:38.616Z,0.50
2018-12-03T02:55:09.118Z,0.40
2018-12-03T02:57:37.373Z,0.50
2018-12-03T03:00:09.314Z,0.50
2018-12-03T03:02:37.575Z,0.50
2018-12-03T03:05:08.000Z,0.50
2018-12-03T03:07:36.271Z,0.40
2018-12-03T03:10:07.267Z,0.50
2018-12-03T03:12:35.391Z,0.50
2018-12-03T03:15:03.865Z,0.50
2018-12-03T03:17:32.062Z,0.50
2018-12-03T03:20:00.472Z,0.50
2018-12-03T03:22:28.802Z,0.50
2018-12-03T03:24:57.670Z,0.50
2018-12-03T03:27:25.970Z,0.50
2018-12-03T03:29:54.182Z,0.50
2018-12-03T03:32:22.319Z,0.50
2018-12-03T03:34:50.460Z,0.57
2018-12-03T03:37:18.646Z,0.50
2018-12-03T03:39:46.953Z,0.50
2018-12-03T03:42:15.102Z,0.40
2018-12-03T03:44:43.257Z,0.50
2018-12-03T03:47:11.431Z,0.50
2018-12-03T03:49:39.601Z,0.60
2018-12-03T03:52:07.898Z,0.50
2018-12-03T03:54:36.075Z,0.50
2018-12-03T03:57:04.440Z,0.50
2018-12-03T03:59:32.566Z,0.50
2018-12-03T04:02:00.776Z,0.50
2018-12-03T04:04:29.644Z,0.50
2018-12-03T04:06:57.957Z,0.60
2018-12-03T04:09:26.135Z,0.50
2018-12-03T04:11:54.300Z,0.50
2018-12-03T04:14:22.721Z,0.50
2018-12-03T04:16:50.934Z,0.60
2018-12-03T04:19:19.136Z,0.50
2018-12-03T04:21:47.331Z,0.57
2018-12-03T04:24:15.598Z,0.50
2018-12-03T04:26:43.878Z,0.50
2018-12-03T04:29:12.423Z,0.73
2018-12-03T04:31:40.753Z,0.60
2018-12-03T04:34:08.933Z,0.50
2018-12-03T04:36:37.150Z,0.60
2018-12-03T04:39:07.703Z,0.60
2018-12-03T04:41:35.944Z,0.53
2018-12-03T04:44:04.534Z,0.50
2018-12-03T04:46:32.847Z,0.50
2018-12-03T04:49:01.243Z,0.50
2018-12-03T04:51:29.426Z,0.50
2018-12-03T04:53:57.612Z,0.50
2018-12-03T04:56:25.941Z,0.57
2018-12-03T04:58:54.115Z,0.50
2018-12-03T05:01:22.323Z,0.50
2018-12-03T05:03:50.677Z,0.60
2018-12-03T05:06:19.077Z,0.60
2018-12-03T05:08:47.367Z,0.57
2018-12-03T05:11:15.958Z,0.50
2018-12-03T05:13:44.086Z,0.50
2018-12-03T05:16:12.313Z,0.50
2018-12-03T05:18:40.500Z,0.50
2018-12-03T05:21:08.645Z,0.50
2018-12-03T05:23:36.774Z,0.50
2018-12-03T05:26:04.950Z,0.70
2018-12-03T05:28:33.269Z,0.50
2018-12-03T05:31:01.778Z,0.60
2018-12-03T05:33:30.139Z,0.60
2018-12-03T05:35:58.302Z,0.50
2018-12-03T05:38:26.609Z,0.50
2018-12-03T05:40:54.903Z,0.60
2018-12-03T05:43:23.027Z,0.80
2018-12-03T05:45:51.217Z,0.60
2018-12-03T05:48:19.394Z,0.50
2018-12-03T05:50:47.565Z,0.50
2018-12-03T05:53:15.733Z,0.60
2018-12-03T05:55:43.911Z,0.50
2018-12-03T05:58:12.075Z,0.50
2018-12-03T06:00:40.271Z,1.07
2018-12-03T06:03:08.416Z,1.00
2018-12-03T06:05:36.547Z,1.87
2018-12-03T06:08:05.013Z,1.33
2018-12-03T06:10:33.134Z,1.03
2018-12-03T06:13:01.350Z,0.73
2018-12-03T06:15:29.612Z,0.65
2018-12-03T06:17:57.784Z,0.73
2018-12-03T06:20:25.963Z,0.60
2018-12-03T06:22:54.818Z,0.50
2018-12-03T06:25:25.478Z,0.70
2018-12-03T06:27:53.845Z,1.70
2018-12-03T06:30:23.068Z,1.00
2018-12-03T06:32:51.298Z,0.60
2018-12-03T06:35:19.865Z,0.60
2018-12-03T06:37:48.383Z,0.68
2018-12-03T06:40:20.642Z,0.60
2018-12-03T06:42:49.039Z,0.50
2018-12-03T06:45:18.589Z,0.73
2018-12-03T06:47:53.163Z,0.50
2018-12-03T06:50:21.483Z,0.50
2018-12-03T06:52:49.916Z,0.93
2018-12-03T06:55:18.203Z,0.70
2018-12-03T06:57:46.331Z,0.80
2018-12-03T07:00:17.746Z,0.70
2018-12-03T07:02:45.921Z,0.60
2018-12-03T07:05:14.217Z,0.50
2018-12-03T07:07:43.396Z,0.50
2018-12-03T07:10:14.646Z,0.50
2018-12-03T07:12:43.108Z,0.60
2018-12-03T07:15:13.019Z,0.70
2018-12-03T07:17:41.205Z,0.60
2018-12-03T07:20:11.529Z,0.50
2018-12-03T07:22:39.966Z,0.50
2018-12-03T07:25:09.351Z,0.50
2018-12-03T07:27:37.767Z,0.50
2018-12-03T07:30:17.945Z,0.60
2018-12-03T07:32:47.327Z,0.60
2018-12-03T07:35:15.829Z,0.60
2018-12-03T07:37:44.166Z,0.50
2018-12-03T07:40:13.034Z,0.80
2018-12-03T07:42:42.093Z,0.50
2018-12-03T07:45:13.351Z,0.70
2018-12-03T07:47:41.529Z,0.60
2018-12-03T07:50:11.968Z,0.63
2018-12-03T07:52:40.507Z,0.60
2018-12-03T07:55:12.772Z,0.63
2018-12-03T07:57:42.501Z,0.67
2018-12-03T08:00:12.754Z,0.50
2018-12-03T08:02:40.978Z,0.60
2018-12-03T08:05:10.073Z,0.50
2018-12-03T08:07:38.587Z,0.50
2018-12-03T08:10:10.839Z,0.60
2018-12-03T08:12:39.031Z,0.53
2018-12-03T08:15:10.394Z,0.53
2018-12-03T08:17:38.783Z,0.70
2018-12-03T08:20:11.170Z,0.70
2018-12-03T08:22:39.549Z,0.70
2018-12-03T08:25:08.299Z,0.60
2018-12-03T08:27:36.477Z,0.60
2018-12-03T08:30:05.349Z,0.50
2018-12-03T08:32:33.770Z,0.70
2018-12-03T08:35:02.235Z,0.60
2018-12-03T08:37:30.537Z,0.78
2018-12-03T08:39:58.681Z,0.67
2018-12-03T08:42:26.931Z,0.60
2018-12-03T08:44:55.086Z,0.50
2018-12-03T08:47:23.394Z,0.50
2018-12-03T08:49:51.513Z,0.63
2018-12-03T08:52:19.930Z,0.63
2018-12-03T08:54:48.174Z,0.75
2018-12-03T08:57:16.359Z,0.60
2018-12-03T08:59:44.537Z,0.60
2018-12-03T09:02:12.670Z,0.70
2018-12-03T09:04:41.285Z,0.73
2018-12-03T09:07:09.644Z,0.50
2018-12-03T09:09:37.998Z,0.57
2018-12-03T09:12:06.896Z,0.60
2018-12-03T09:14:35.498Z,0.60
2018-12-03T09:17:03.767Z,0.60
2018-12-03T09:19:31.867Z,0.70
2018-12-03T09:22:00.287Z,0.90
2018-12-03T09:24:28.708Z,0.60
2018-12-03T09:26:57.003Z,0.60
2018-12-03T09:29:25.214Z,0.62
2018-12-03T09:31:53.542Z,0.60
2018-12-03T09:34:21.720Z,0.60
2018-12-03T09:36:50.053Z,0.60
2018-12-03T09:39:18.632Z,0.70
2018-12-03T09:41:48.397Z,0.70
2018-12-03T09:44:16.618Z,0.50
2018-12-03T09:46:44.774Z,0.70
2018-12-03T09:49:13.007Z,0.60
2018-12-03T09:51:41.287Z,0.70
2018-12-03T09:54:10.654Z,0.77
2018-12-03T09:56:44.995Z,0.80
2018-12-03T09:59:16.533Z,0.80
2018-12-03T10:01:45.961Z,0.60
2018-12-03T10:04:22.343Z,0.80
2018-12-03T10:06:51.096Z,0.80
2018-12-03T10:09:19.238Z,0.60
2018-12-03T10:11:47.580Z,0.73
2018-12-03T10:14:19.011Z,0.68
2018-12-03T10:16:47.529Z,1.00
2018-12-03T10:19:16.001Z,0.90
2018-12-03T10:21:47.146Z,0.90
2018-12-03T10:24:15.871Z,1.37
2018-12-03T10:26:44.038Z,1.10
2018-12-03T10:29:14.690Z,0.90
2018-12-03T10:31:42.862Z,0.60
2018-12-03T10:34:13.269Z,0.80
2018-12-03T10:36:49.177Z,0.63
2018-12-03T10:39:22.238Z,0.60
2018-12-03T10:41:55.483Z,0.57
2018-12-03T10:44:23.938Z,0.70
2018-12-03T10:46:52.390Z,0.60
2018-12-03T10:49:20.771Z,0.80
2018-12-03T10:51:49.030Z,0.60
2018-12-03T10:54:17.219Z,0.70
2018-12-03T10:56:45.501Z,0.60
2018-12-03T10:59:13.697Z,0.80
2018-12-03T11:01:46.930Z,0.93
2018-12-03T11:04:20.496Z,0.80
2018-12-03T11:06:48.878Z,0.85
2018-12-03T11:09:17.470Z,0.63
2018-12-03T11:11:48.790Z,0.70
2018-12-03T11:14:17.409Z,0.90
2018-12-03T11:16:47.255Z,1.00
2018-12-03T11:19:15.558Z,0.60
2018-12-03T11:21:43.703Z,0.87
2018-12-03T11:24:15.927Z,0.70
2018-12-03T11:26:46.022Z,0.50
2018-12-03T11:29:14.594Z,0.60
2018-12-03T11:31:43.039Z,0.60
2018-12-03T11:34:11.287Z,0.70
2018-12-03T11:36:44.071Z,0.60
2018-12-03T11:42:18.413Z,0.70
2018-12-03T11:44:46.691Z,0.60
2018-12-03T11:47:14.883Z,0.60
2018-12-03T11:49:43.384Z,0.70
2018-12-03T11:52:11.651Z,0.60
2018-12-03T11:54:39.955Z,0.60
2018-12-03T11:57:08.527Z,0.67
2018-12-03T11:59:36.971Z,0.70
2018-12-03T12:02:05.633Z,0.60
2018-12-03T12:04:33.882Z,0.70
2018-12-03T12:07:02.307Z,0.73
2018-12-03T12:09:30.600Z,0.73
2018-12-03T12:11:58.886Z,0.80
2018-12-03T12:14:28.195Z,0.60
2018-12-03T12:16:56.473Z,0.90
2018-12-03T12:19:24.669Z,0.90
2018-12-03T12:21:52.834Z,0.80
2018-12-03T12:24:21.334Z,0.90
2018-12-03T12:26:50.364Z,0.80
2018-12-03T12:29:18.644Z,0.60
2018-12-03T12:31:46.884Z,1.10
2018-12-03T12:34:15.070Z,0.73
2018-12-03T12:36:43.415Z,1.00
2018-12-03T12:39:11.582Z,1.10
2018-12-03T12:41:40.893Z,1.33
2018-12-03T12:44:10.589Z,1.33
2018-12-03T12:46:41.178Z,1.20
2018-12-03T12:49:09.461Z,0.75
2018-12-03T12:51:37.647Z,1.03
2018-12-03T12:54:06.046Z,1.00
2018-12-03T12:56:34.527Z,0.90
2018-12-03T12:59:03.348Z,0.90
2018-12-03T13:01:31.798Z,0.90
2018-12-03T13:04:00.058Z,0.88
2018-12-03T13:06:28.491Z,0.70
2018-12-03T13:08:56.739Z,0.80
2018-12-03T13:11:24.999Z,1.07
2018-12-03T13:13:53.477Z,1.33
2018-12-03T13:16:21.759Z,1.40
2018-12-03T13:18:49.920Z,1.67
2018-12-03T13:21:18.361Z,1.67
2018-12-03T13:23:47.011Z,1.20
2018-12-03T13:26:15.713Z,2.00
2018-12-03T13:28:43.994Z,1.90
2018-12-03T13:31:12.131Z,1.30
2018-12-03T13:33:40.314Z,1.20
2018-12-03T13:36:09.907Z,2.40
2018-12-03T13:38:38.089Z,1.10
2018-12-03T13:41:07.026Z,1.27
2018-12-03T13:43:35.378Z,4.73
2018-12-03T13:46:03.554Z,2.75
2018-12-03T13:48:31.774Z,1.57
2018-12-03T13:51:00.108Z,1.70
2018-12-03T13:53:28.352Z,2.50
2018-12-03T13:55:56.516Z,1.20
2018-12-03T13:58:24.782Z,1.03
2018-12-03T14:00:53.020Z,0.90
2018-12-03T14:03:23.243Z,0.80
2018-12-03T14:07:07.457Z,0.70
2018-12-03T14:09:46.402Z,0.70
2018-12-03T14:12:25.135Z,0.62
2018-12-03T14:15:01.103Z,1.00
2018-12-03T14:17:37.281Z,1.43
2018-12-03T14:20:06.986Z,0.70
2018-12-03T14:22:39.631Z,0.90
2018-12-03T14:25:08.058Z,0.80
2018-12-03T14:27:36.174Z,0.90
2018-12-03T14:30:04.821Z,0.70
2018-12-03T14:32:33.170Z,0.60
2018-12-03T14:35:01.404Z,0.60
2018-12-03T14:37:29.705Z,0.80
2018-12-03T14:39:58.009Z,2.13
2018-12-03T14:42:26.162Z,0.70
2018-12-03T14:44:54.303Z,0.60
2018-12-03T14:47:22.615Z,0.70
2018-12-03T14:49:50.770Z,0.60
2018-12-03T14:52:19.074Z,0.83
2018-12-03T14:54:47.242Z,1.27
2018-12-03T14:57:15.454Z,0.90
2018-12-03T14:59:43.626Z,0.83
2018-12-03T15:02:11.826Z,1.10
2018-12-03T15:04:40.001Z,1.33
2018-12-03T15:07:08.422Z,1.53
2018-12-03T15:09:36.562Z,1.30
2018-12-03T15:12:04.936Z,1.70
2018-12-03T15:14:33.358Z,1.32
2018-12-03T15:17:01.760Z,1.17
2018-12-03T15:19:30.041Z,1.27
2018-12-03T15:21:58.253Z,1.20
2018-12-03T15:24:26.431Z,1.37
2018-12-03T15:26:54.798Z,1.50
2018-12-03T15:29:23.125Z,1.50
2018-12-03T15:31:52.015Z,1.60
2018-12-03T15:34:20.376Z,1.60
2018-12-03T15:36:48.519Z,1.50
2018-12-03T15:39:16.889Z,1.50
2018-12-03T15:41:45.113Z,1.17
2018-12-03T15:44:13.352Z,1.40
2018-12-03T15:46:41.620Z,1.20
2018-12-03T15:49:09.806Z,1.00
2018-12-03T15:51:38.077Z,1.40
2018-12-03T15:54:06.311Z,1.60
2018-12-03T15:56:34.571Z,2.10
2018-12-03T15:59:02.853Z,3.70
2018-12-03T16:01:31.124Z,5.58
2018-12-03T16:03:59.354Z,2.33
2018-12-03T16:06:27.654Z,5.20
2018-12-03T16:08:55.803Z,2.40
2018-12-03T16:11:23.930Z,2.27
2018-12-03T16:13:52.091Z,1.80
2018-12-03T16:16:20.268Z,1.83
2018-12-03T16:18:48.685Z,1.53
2018-12-03T16:21:17.011Z,1.60
2018-12-03T16:23:45.311Z,1.60
2018-12-03T16:26:13.430Z,1.27
2018-12-03T16:28:41.583Z,1.50
2018-12-03T16:31:10.033Z,1.23
2018-12-03T16:33:38.450Z,1.80
2018-12-03T16:36:06.865Z,1.67
2018-12-03T16:38:35.079Z,1.17
2018-12-03T16:41:03.413Z,2.80
2018-12-03T16:43:31.835Z,2.40
2018-12-03T16:46:00.056Z,1.80
2018-12-03T16:48:28.226Z,1.53
2018-12-03T16:50:56.514Z,2.23
2018-12-03T16:53:25.341Z,1.82
2018-12-03T16:55:53.566Z,1.50
2018-12-03T16:58:21.819Z,1.50
2018-12-03T17:00:49.981Z,1.60
2018-12-03T17:03:18.113Z,4.70
2018-12-03T17:05:46.292Z,5.10
2018-12-03T17:08:14.568Z,2.30
2018-12-03T17:10:42.778Z,2.30
2018-12-03T17:13:11.023Z,1.77
2018-12-03T17:15:39.172Z,1.70
2018-12-03T17:18:07.335Z,2.75
2018-12-03T17:21:13.112Z,4.73
2018-12-03T17:23:48.979Z,4.70
2018-12-03T17:26:17.112Z,2.60
2018-12-03T17:28:45.311Z,2.30
2018-12-03T17:31:13.562Z,1.30
2018-12-03T17:33:41.719Z,1.47
2018-12-03T17:36:09.841Z,1.20
2018-12-03T17:38:38.171Z,0.80
2018-12-03T17:41:06.455Z,1.25
2018-12-03T17:43:34.613Z,1.13
2018-12-03T17:46:02.940Z,1.30
2018-12-03T17:48:31.191Z,1.23
2018-12-03T17:50:59.462Z,1.50
2018-12-03T17:53:28.161Z,1.55
2018-12-03T17:55:56.411Z,2.93
2018-12-03T17:58:24.653Z,1.50
2018-12-03T18:00:52.806Z,1.20
2018-12-03T18:03:20.986Z,1.30
2018-12-03T18:05:49.126Z,3.00
2018-12-03T18:08:17.416Z,10.13
2018-12-03T18:10:45.607Z,2.30
2018-12-03T18:13:13.868Z,2.37
2018-12-03T18:15:42.263Z,1.65
2018-12-03T18:18:10.747Z,2.80
2018-12-03T18:20:39.139Z,2.37
2018-12-03T18:23:07.322Z,2.30
2018-12-03T18:25:35.553Z,3.53
2018-12-03T18:28:03.858Z,11.53
2018-12-03T18:30:32.347Z,4.37
2018-12-03T18:33:00.763Z,5.13
2018-12-03T18:35:29.695Z,3.17
2018-12-03T18:37:57.955Z,1.20
2018-12-03T18:40:26.152Z,1.37
2018-12-03T18:42:54.510Z,1.20
2018-12-03T18:45:22.731Z,1.17
2018-12-03T18:47:50.940Z,1.40
2018-12-03T18:50:25.566Z,1.47
2018-12-03T18:52:53.739Z,1.33
2018-12-03T18:55:21.990Z,1.20
2018-12-03T18:57:54.145Z,1.33
2018-12-03T19:00:22.289Z,1.10
2018-12-03T19:02:50.523Z,1.57
2018-12-03T19:05:18.795Z,1.57
2018-12-03T19:07:46.930Z,2.22
2018-12-03T19:10:15.178Z,1.60
2018-12-03T19:12:43.604Z,1.40
2018-12-03T19:15:11.894Z,1.33
2018-12-03T19:17:40.111Z,1.80
2018-12-03T19:20:09.274Z,1.00
2018-12-03T19:22:37.475Z,0.90
2018-12-03T19:25:06.888Z,0.80
2018-12-03T19:27:35.554Z,0.80
2018-12-03T19:30:04.139Z,0.72
2018-12-03T19:32:32.314Z,0.60
2018-12-03T19:35:01.365Z,1.15
2018-12-03T19:37:29.845Z,0.77
2018-12-03T19:39:58.183Z,0.70
2018-12-03T19:42:26.695Z,0.90
2018-12-03T19:44:55.090Z,0.70
2018-12-03T19:47:23.412Z,1.00
2018-12-03T19:49:51.561Z,0.80
2018-12-03T19:52:19.762Z,0.90
2018-12-03T19:54:48.662Z,1.10
2018-12-03T19:57:20.702Z,0.73
2018-12-03T19:59:50.606Z,0.70
2018-12-03T20:02:18.815Z,0.87
2018-12-03T20:04:51.037Z,1.00
2018-12-03T20:07:19.204Z,0.80
2018-12-03T20:09:48.556Z,1.07
2018-12-03T20:12:16.998Z,0.83
2018-12-03T20:14:45.212Z,1.07
2018-12-03T20:17:19.425Z,1.20
2018-12-03T20:19:47.586Z,1.37
2018-12-03T20:22:16.616Z,0.90
2018-12-03T20:24:44.886Z,0.93
2018-12-03T20:27:18.062Z,1.00
2018-12-03T20:29:53.278Z,1.10
2018-12-03T20:32:32.278Z,1.30
2018-12-03T20:35:09.473Z,1.03
2018-12-03T20:38:47.618Z,0.70
2018-12-03T20:41:27.146Z,0.90
2018-12-03T20:43:58.435Z,1.37
2018-12-03T20:46:50.589Z,1.10
2018-12-03T20:50:34.739Z,1.10
2018-12-03T20:53:03.219Z,0.82
2018-12-03T20:55:35.688Z,1.20
2018-12-03T20:58:03.904Z,0.90
2018-12-03T21:00:32.162Z,1.00
2018-12-03T21:03:01.333Z,1.10
2018-12-03T21:05:29.514Z,1.10
2018-12-03T21:07:57.933Z,1.13
2018-12-03T21:10:26.069Z,1.10
2018-12-03T21:12:54.235Z,0.90
2018-12-03T21:15:22.486Z,1.57
2018-12-03T21:17:51.100Z,1.30
2018-12-03T21:20:23.304Z,1.50
2018-12-03T21:22:51.427Z,0.80
2018-12-03T21:25:19.925Z,1.10
2018-12-03T21:27:48.280Z,1.30
2018-12-03T21:30:16.531Z,1.20
2018-12-03T21:32:44.954Z,1.20
2018-12-03T21:35:13.338Z,1.30
2018-12-03T21:37:41.764Z,1.10
2018-12-03T21:40:10.095Z,1.07
2018-12-03T21:42:38.271Z,0.80
2018-12-03T21:45:06.875Z,1.27
2018-12-03T21:47:35.262Z,1.07
2018-12-03T21:50:05.908Z,1.30
2018-12-03T21:52:31.920Z,1.00
2018-12-03T21:55:00.112Z,1.10
2018-12-03T21:57:28.346Z,1.40
2018-12-03T22:02:45.486Z,1.12
2018-12-03T22:05:13.962Z,1.60
2018-12-03T22:07:42.126Z,1.07
2018-12-03T22:10:10.385Z,1.00
2018-12-03T22:12:38.590Z,1.10
2018-12-03T22:15:07.822Z,1.30
2018-12-03T22:17:36.306Z,1.23
2018-12-03T22:20:08.667Z,1.17
2018-12-03T22:22:36.964Z,1.00
2018-12-03T22:25:06.179Z,1.32
2018-12-03T22:27:34.343Z,1.20
2018-12-03T22:30:02.822Z,1.05
2018-12-03T22:32:30.997Z,1.50
2018-12-03T22:34:59.418Z,1.33
2018-12-03T22:37:27.692Z,1.70
2018-12-03T22:39:55.975Z,1.40
2018-12-03T22:42:24.144Z,1.70
2018-12-03T22:44:52.341Z,1.20
2018-12-03T22:47:20.560Z,1.00
2018-12-03T22:49:49.114Z,1.00
2018-12-03T22:52:17.441Z,1.30
2018-12-03T22:54:45.794Z,1.20
2018-12-03T22:57:14.130Z,1.20
2018-12-03T22:59:42.531Z,1.02
2018-12-03T23:02:10.791Z,0.80
2018-12-03T23:04:40.171Z,1.10
2018-12-03T23:07:08.524Z,0.90
2018-12-03T23:09:36.947Z,0.90
2018-12-03T23:12:05.295Z,1.10
2018-12-03T23:14:33.475Z,0.90
2018-12-03T23:17:01.738Z,0.83
2018-12-03T23:19:30.025Z,0.83
2018-12-03T23:21:58.263Z,1.07
2018-12-03T23:24:26.543Z,0.70
2018-12-03T23:26:54.829Z,1.00
2018-12-03T23:29:22.958Z,1.27
2018-12-03T23:31:51.223Z,0.90
2018-12-03T23:34:19.369Z,0.90
2018-12-03T23:36:47.630Z,0.70
2018-12-03T23:39:16.079Z,1.50
2018-12-03T23:41:44.285Z,0.80
2018-12-03T23:44:12.527Z,0.80
2018-12-03T23:46:40.825Z,0.70
2018-12-03T23:49:09.022Z,0.90
2018-12-03T23:51:38.193Z,0.80
2018-12-03T23:54:06.379Z,1.00
2018-12-03T23:56:34.578Z,0.80
2018-12-03T23:59:02.912Z,1.10
